createdAt,value
2022-09-11T00:03:01.836Z,100003.22
2022-09-11T00:07:04.134Z,100004.84
2022-09-11T00:11:12.140Z,100000.31
2022-09-11T00:15:14.622Z,100008.56
2022-09-11T00:19:20.226Z,100004.91
2022-09-11T00:23:25.133Z,100013.69
2022-09-11T00:27:27.127Z,100002.00
2022-09-11T00:31:30.582Z,100005.41
2022-09-11T00:35:33.307Z,99995.63
2022-09-11T00:39:35.768Z,99991.03
2022-09-11T00:44:00.417Z,99984.69
2022-09-11T00:48:03.792Z,99994.94
2022-09-11T00:52:14.799Z,99994.94
2022-09-11T00:56:17.442Z,99993.56
2022-09-11T01:00:19.525Z,99984.19
2022-09-11T01:04:23.354Z,99987.44
2022-09-11T01:08:25.901Z,99975.69
2022-09-11T01:12:52.677Z,99977.88
2022-09-11T01:17:18.282Z,99967.91
2022-09-11T01:21:58.085Z,99974.41
2022-09-11T01:26:20.970Z,99975.03
2022-09-11T01:30:29.146Z,99970.00
2022-09-11T01:34:42.522Z,99963.00
2022-09-11T01:39:01.100Z,99960.00
2022-09-11T01:43:10.046Z,99960.00
2022-09-11T01:47:12.803Z,99951.34
2022-09-11T01:51:23.523Z,99952.25
2022-09-11T01:55:41.496Z,99956.97
2022-09-11T01:59:50.276Z,99959.50
2022-09-11T02:04:10.758Z,99966.13
2022-09-11T02:08:16.552Z,99964.56
2022-09-11T02:12:26.230Z,99965.41
2022-09-11T02:16:48.304Z,99960.03
2022-09-11T02:20:52.959Z,99959.81
2022-09-11T02:24:55.459Z,99960.97
2022-09-11T02:28:57.760Z,99956.78
2022-09-11T02:33:00.053Z,99945.88
2022-09-11T02:37:08.363Z,99950.91
2022-09-11T02:41:24.231Z,99951.25
2022-09-11T02:45:34.627Z,99949.09
2022-09-11T02:50:18.767Z,99944.03
2022-09-11T02:54:27.610Z,99937.28
2022-09-11T02:58:37.408Z,99947.94
2022-09-11T03:02:43.336Z,99939.44
2022-09-11T03:06:48.685Z,99931.75
2022-09-11T03:10:51.067Z,99937.97
2022-09-11T03:14:53.469Z,99934.41
2022-09-11T03:18:57.015Z,99923.75
2022-09-11T03:22:59.140Z,99922.50
2022-09-11T03:27:05.258Z,99923.56
2022-09-11T03:31:09.950Z,99925.72
2022-09-11T03:35:13.155Z,99925.09
2022-09-11T03:39:15.370Z,99926.97
2022-09-11T03:43:17.779Z,99930.38
2022-09-11T03:47:26.479Z,99924.00
2022-09-11T03:51:38.143Z,99917.09
2022-09-11T03:55:41.143Z,99918.19
2022-09-11T03:59:44.113Z,99916.66
2022-09-11T04:03:46.280Z,99919.19
2022-09-11T04:07:56.882Z,99925.75
2022-09-11T04:11:59.777Z,99931.13
2022-09-11T04:16:11.210Z,99930.69
2022-09-11T04:20:15.580Z,99922.06
2022-09-11T04:24:20.207Z,99932.69
2022-09-11T04:28:22.699Z,99921.78
2022-09-11T04:32:25.147Z,99929.66
2022-09-11T04:36:27.335Z,99931.03
2022-09-11T04:40:29.487Z,99921.56
2022-09-11T04:44:32.842Z,99922.22
2022-09-11T04:48:37.742Z,99921.06
2022-09-11T04:52:40.836Z,99914.94
2022-09-11T04:56:44.621Z,99921.16
2022-09-11T05:00:48.046Z,99911.81
2022-09-11T05:04:50.491Z,99911.69
2022-09-11T05:08:52.561Z,99904.41
2022-09-11T05:12:54.822Z,99908.75
2022-09-11T05:16:57.013Z,99903.09
2022-09-11T05:21:06.955Z,99910.97
2022-09-11T05:25:10.102Z,99904.91
2022-09-11T05:29:15.639Z,99905.78
2022-09-11T05:33:24.483Z,99900.69
2022-09-11T05:37:26.870Z,99900.28
2022-09-11T05:41:29.519Z,99899.34
2022-09-11T05:45:32.731Z,99905.44
2022-09-11T05:49:35.142Z,99902.91
2022-09-11T05:53:38.444Z,99899.97
2022-09-11T05:57:42.435Z,99895.25
2022-09-11T06:01:44.767Z,99889.44
2022-09-11T06:05:54.337Z,99885.06
2022-09-11T06:10:02.350Z,99889.59
2022-09-11T06:14:05.883Z,99893.56
2022-09-11T06:18:08.248Z,99903.59
2022-09-11T06:22:10.302Z,99909.97
2022-09-11T06:26:21.505Z,99903.75
2022-09-11T06:30:23.986Z,99905.38
2022-09-11T06:34:27.156Z,99909.66
2022-09-11T06:38:34.308Z,99906.88
2022-09-11T06:42:37.641Z,99908.34
2022-09-11T06:46:40.547Z,99905.22
2022-09-11T06:50:48.546Z,99899.53
2022-09-11T06:54:50.718Z,99908.94
2022-09-11T06:58:55.035Z,99907.78
2022-09-11T07:02:59.785Z,99902.91
2022-09-11T07:07:02.393Z,99901.91
2022-09-11T07:11:06.165Z,99904.53
2022-09-11T07:15:10.829Z,99892.84
2022-09-11T07:19:14.107Z,99898.59
2022-09-11T07:23:16.895Z,99899.91
2022-09-11T07:27:19.405Z,99890.78
2022-09-11T07:31:33.624Z,99893.31
2022-09-11T07:35:39.235Z,99885.91
2022-09-11T07:39:41.918Z,99877.50
2022-09-11T07:44:04.163Z,99878.94
2022-09-11T07:48:09.189Z,99872.97
2022-09-11T07:52:16.139Z,99877.09
2022-09-11T07:56:25.994Z,99860.84
2022-09-11T08:00:33.012Z,99870.34
2022-09-11T08:04:48.064Z,99879.34
2022-09-11T08:08:55.286Z,99876.38
2022-09-11T08:13:00.042Z,99889.56
2022-09-11T08:17:06.801Z,99890.81
2022-09-11T08:21:13.003Z,99903.03
2022-09-11T08:25:19.386Z,99905.53
2022-09-11T08:29:22.860Z,99907.25
2022-09-11T08:33:25.577Z,99905.53
2022-09-11T08:37:27.788Z,99904.84
2022-09-11T08:41:52.505Z,99899.38
2022-09-11T08:46:02.328Z,99901.19
2022-09-11T08:50:04.833Z,99912.03
2022-09-11T08:54:07.578Z,99900.91
2022-09-11T08:58:17.861Z,99904.56
2022-09-11T09:02:33.063Z,99907.84
2022-09-11T09:06:35.711Z,99905.34
2022-09-11T09:11:07.545Z,99907.31
2022-09-11T09:15:42.555Z,99906.66
2022-09-11T09:20:13.196Z,99914.53
2022-09-11T09:24:20.643Z,99910.28
2022-09-11T09:28:50.825Z,99910.84
2022-09-11T09:33:04.687Z,99914.59
2022-09-11T09:37:18.137Z,99918.59
2022-09-11T09:41:39.649Z,99919.84
2022-09-11T09:45:54.992Z,99902.13
2022-09-11T09:50:00.619Z,99897.88
2022-09-11T09:54:03.124Z,99899.72
2022-09-11T09:58:05.152Z,99889.44
2022-09-11T10:02:08.066Z,99895.63
2022-09-11T10:06:10.509Z,99896.50
2022-09-11T10:10:22.705Z,99914.97
2022-09-11T10:14:49.956Z,99915.28
2022-09-11T10:18:47.576Z,99905.72
2022-09-11T10:22:51.505Z,99901.38
2022-09-11T10:26:56.489Z,99893.72
2022-09-11T10:31:05.163Z,99888.91
2022-09-11T10:35:11.251Z,99885.44
2022-09-11T10:39:20.091Z,99884.06
2022-09-11T10:43:40.107Z,99883.63
2022-09-11T10:47:42.195Z,99894.59
2022-09-11T10:52:17.518Z,99882.22
2022-09-11T10:56:20.964Z,99877.06
2022-09-11T11:00:25.670Z,99868.22
2022-09-11T11:04:31.901Z,99866.59
2022-09-11T11:08:55.257Z,99856.53
2022-09-11T11:12:57.308Z,99845.75
2022-09-11T11:17:28.951Z,99855.94
2022-09-11T11:21:38.157Z,99855.41
2022-09-11T11:25:54.545Z,99845.06
2022-09-11T11:30:28.325Z,99848.28
2022-09-11T11:34:47.188Z,99826.97
2022-09-11T11:39:26.744Z,99835.94
2022-09-11T11:43:34.371Z,99822.19
2022-09-11T11:47:43.998Z,99821.72
2022-09-11T11:52:13.434Z,99827.69
2022-09-11T11:56:30.702Z,99800.44
2022-09-11T12:00:39.423Z,99810.50
2022-09-11T12:05:17.327Z,99795.00
2022-09-11T12:09:20.271Z,99792.09
2022-09-11T12:13:37.391Z,99786.78
2022-09-11T12:17:41.019Z,99792.88
2022-09-11T12:22:10.394Z,99799.31
2022-09-11T12:26:18.894Z,99786.69
2022-09-11T12:30:27.707Z,99789.91
2022-09-11T12:34:38.894Z,99790.00
2022-09-11T12:38:45.059Z,99783.84
2022-09-11T12:42:57.655Z,99778.63
2022-09-11T12:46:59.602Z,99771.34
2022-09-11T12:51:04.340Z,99775.31
2022-09-11T12:55:28.218Z,99773.84
2022-09-11T12:59:38.127Z,99779.00
2022-09-11T13:03:56.781Z,99777.25
2022-09-11T13:08:05.102Z,99778.66
2022-09-11T13:12:25.907Z,99802.31
2022-09-11T13:16:34.962Z,99799.00
2022-09-11T13:20:37.027Z,99779.56
2022-09-11T13:24:39.295Z,99802.78
2022-09-11T13:28:48.135Z,99795.44
2022-09-11T13:33:03.925Z,99803.06
2022-09-11T13:37:13.266Z,99791.94
2022-09-11T13:41:21.983Z,99793.13
2022-09-11T13:45:24.922Z,99820.56
2022-09-11T13:49:42.317Z,99796.38
2022-09-11T13:53:46.827Z,99867.41
2022-09-11T13:58:00.912Z,99904.25
2022-09-11T14:02:17.539Z,99892.25
2022-09-11T14:06:21.123Z,99902.69
2022-09-11T14:10:28.564Z,99922.09
2022-09-11T14:14:31.002Z,99925.13
2022-09-11T14:18:48.720Z,99935.81
2022-09-11T14:22:56.282Z,99937.31
2022-09-11T14:27:04.886Z,99959.81
2022-09-11T14:31:08.953Z,99949.75
2022-09-11T14:35:11.398Z,99954.69
2022-09-11T14:39:36.714Z,99959.03
2022-09-11T14:43:39.260Z,99953.78
2022-09-11T14:47:41.638Z,99958.09
2022-09-11T14:51:43.987Z,99965.81
2022-09-11T14:55:46.208Z,99957.34
2022-09-11T14:59:48.277Z,99955.03
2022-09-11T15:03:50.431Z,99956.13
2022-09-11T15:07:53.187Z,99947.53
2022-09-11T15:11:55.495Z,99954.25
2022-09-11T15:15:57.792Z,99951.41
2022-09-11T15:20:00.787Z,99944.75
2022-09-11T15:24:05.326Z,99954.69
2022-09-11T15:28:10.470Z,99957.56
2022-09-11T15:32:12.631Z,99958.41
2022-09-11T15:36:15.564Z,99948.72
2022-09-11T15:40:18.162Z,99920.88
2022-09-11T15:44:23.984Z,99960.88
2022-09-11T15:48:28.655Z,99956.38
2022-09-11T15:52:33.457Z,99938.38
2022-09-11T15:56:36.010Z,99920.53
2022-09-11T16:00:39.032Z,99914.56
2022-09-11T16:04:41.150Z,99905.22
2022-09-11T16:08:43.689Z,99911.91
2022-09-11T16:12:47.135Z,99913.00
2022-09-11T16:16:50.911Z,99918.47
2022-09-11T16:20:58.255Z,99907.22
2022-09-11T16:25:00.624Z,99917.34
2022-09-11T16:29:15.545Z,99909.69
2022-09-11T16:33:17.678Z,99912.63
2022-09-11T16:37:19.837Z,99906.41
2022-09-11T16:41:23.723Z,99921.63
2022-09-11T16:45:25.949Z,99928.19
2022-09-11T16:49:28.225Z,99933.03
2022-09-11T16:53:32.002Z,99930.63
2022-09-11T16:57:34.723Z,99934.50
2022-09-11T17:01:37.409Z,99945.16
2022-09-11T17:05:48.088Z,99943.84
2022-09-11T17:09:50.344Z,99954.53
2022-09-11T17:13:53.201Z,99961.19
2022-09-11T17:17:55.406Z,99961.63
2022-09-11T17:21:58.326Z,99965.66
2022-09-11T17:26:00.434Z,99958.66
2022-09-11T17:30:07.528Z,99971.03
2022-09-11T17:34:09.880Z,99970.38
2022-09-11T17:38:12.479Z,99973.66
2022-09-11T17:42:14.630Z,99977.63
2022-09-11T17:46:21.552Z,99971.78
2022-09-11T17:50:24.267Z,99968.22
2022-09-11T17:54:28.345Z,99977.88
2022-09-11T17:58:30.589Z,99974.53
2022-09-11T18:02:33.048Z,99963.78
2022-09-11T18:06:37.374Z,99964.69
2022-09-11T18:10:39.587Z,99969.44
2022-09-11T18:15:08.189Z,99967.44
2022-09-11T18:19:13.333Z,99970.22
2022-09-11T18:23:16.799Z,99961.63
2022-09-11T18:27:23.182Z,99970.66
2022-09-11T18:31:30.155Z,99967.69
2022-09-11T18:35:33.647Z,99965.22
2022-09-11T18:39:36.175Z,99963.69
2022-09-11T18:43:38.416Z,99972.13
2022-09-11T18:47:40.778Z,99973.69
2022-09-11T18:51:43.161Z,99969.84
2022-09-11T18:55:45.240Z,99966.00
2022-09-11T18:59:47.805Z,99966.28
2022-09-11T19:03:52.204Z,99964.38
2022-09-11T19:08:00.101Z,99961.28
2022-09-11T19:12:03.775Z,99966.34
2022-09-11T19:16:07.048Z,99972.25
2022-09-11T19:20:12.237Z,99989.34
2022-09-11T19:24:14.538Z,99980.53
2022-09-11T19:28:16.531Z,99988.91
2022-09-11T19:32:19.765Z,99989.56
2022-09-11T19:36:24.785Z,99996.69
2022-09-11T19:40:27.266Z,100009.53
2022-09-11T19:44:34.691Z,100001.28
2022-09-11T19:48:40.682Z,100034.56
2022-09-11T19:52:42.694Z,100031.00
2022-09-11T19:56:45.382Z,100000.13
2022-09-11T20:00:47.739Z,99998.16
2022-09-11T20:04:49.953Z,99991.44
2022-09-11T20:09:07.719Z,99992.41
2022-09-11T20:13:15.828Z,99986.84
2022-09-11T20:17:17.955Z,99989.25
2022-09-11T20:21:21.194Z,99986.00
2022-09-11T20:25:23.132Z,99987.47
2022-09-11T20:29:25.333Z,99990.72
2022-09-11T20:33:27.420Z,99990.50
2022-09-11T20:37:29.842Z,99983.88
2022-09-11T20:41:33.347Z,99985.41
2022-09-11T20:45:35.632Z,99983.31
2022-09-11T20:49:37.667Z,99985.72
2022-09-11T20:53:42.004Z,99984.75
2022-09-11T20:57:43.922Z,99978.59
2022-09-11T21:01:46.279Z,99979.66
2022-09-11T21:05:48.860Z,99974.53
2022-09-11T21:09:51.733Z,99973.69
2022-09-11T21:13:53.658Z,99979.31
2022-09-11T21:17:56.163Z,99973.34
2022-09-11T21:21:58.216Z,99969.34
2022-09-11T21:26:00.665Z,99982.88
2022-09-11T21:30:02.791Z,99975.97
2022-09-11T21:34:05.666Z,99974.50
2022-09-11T21:38:07.662Z,99980.38
2022-09-11T21:42:11.893Z,99991.44
2022-09-11T21:46:14.493Z,99989.00
2022-09-11T21:50:17.214Z,99991.44
2022-09-11T21:54:19.452Z,99986.06
2022-09-11T21:58:21.958Z,99978.50
2022-09-11T22:02:25.662Z,99985.53
2022-09-11T22:06:29.294Z,100038.63
2022-09-11T22:10:31.283Z,100049.88
2022-09-11T22:14:33.435Z,100041.53
2022-09-11T22:18:36.998Z,100042.56
2022-09-11T22:22:40.506Z,100048.44
2022-09-11T22:26:42.833Z,100044.72
2022-09-11T22:30:44.958Z,100039.66
2022-09-11T22:34:46.921Z,100040.78
2022-09-11T22:38:49.857Z,100044.03
2022-09-11T22:42:52.110Z,100032.50
2022-09-11T22:46:54.382Z,100029.19
2022-09-11T22:50:57.678Z,100029.41
2022-09-11T22:55:00.078Z,100026.63
2022-09-11T22:59:02.037Z,100025.75
2022-09-11T23:03:04.382Z,100030.19
2022-09-11T23:07:18.457Z,100025.97
2022-09-11T23:11:21.445Z,100016.41
2022-09-11T23:15:23.453Z,100023.88
2022-09-11T23:19:26.018Z,100030.84
2022-09-11T23:23:28.073Z,100032.44
2022-09-11T23:27:30.336Z,100035.16
2022-09-11T23:31:34.230Z,100014.84
2022-09-11T23:35:40.489Z,100008.22
2022-09-11T23:39:42.822Z,100021.59
2022-09-11T23:43:47.259Z,100022.66
2022-09-11T23:47:50.904Z,100023.09
2022-09-11T23:51:53.104Z,100007.72
2022-09-11T23:55:56.735Z,100021.47
2022-09-11T23:59:58.962Z,100022.44
